createdAt,value
2022-12-04T00:01:15.093Z,100498.69
2022-12-04T00:03:43.148Z,100492.47
2022-12-04T00:06:13.058Z,100499.44
2022-12-04T00:08:40.977Z,100489.84
2022-12-04T00:11:10.537Z,100501.81
2022-12-04T00:13:40.864Z,100496.41
2022-12-04T00:16:11.034Z,100491.38
2022-12-04T00:18:38.978Z,100494.81
2022-12-04T00:21:07.758Z,100492.06
2022-12-04T00:23:36.448Z,100488.38
2022-12-04T00:26:06.222Z,100486.59
2022-12-04T00:28:35.275Z,100481.69
2022-12-04T00:31:06.641Z,100495.22
2022-12-04T00:33:35.482Z,100496.31
2022-12-04T00:36:06.336Z,100511.16
2022-12-04T00:38:34.244Z,100503.25
2022-12-04T00:41:02.214Z,100498.34
2022-12-04T00:43:31.968Z,100498.81
2022-12-04T00:45:59.893Z,100491.66
2022-12-04T00:48:28.995Z,100489.84
2022-12-04T00:50:58.321Z,100488.28
2022-12-04T00:53:26.051Z,100491.53
2022-12-04T00:55:53.857Z,100482.16
2022-12-04T00:58:21.563Z,100474.97
2022-12-04T01:00:49.234Z,100474.25
2022-12-04T01:03:17.129Z,100470.19
2022-12-04T01:05:46.930Z,100466.72
2022-12-04T01:08:14.742Z,100453.41
2022-12-04T01:10:43.651Z,100454.13
2022-12-04T01:13:11.375Z,100457.84
2022-12-04T01:15:40.367Z,100451.03
2022-12-04T01:18:08.560Z,100445.50
2022-12-04T01:20:36.365Z,100448.63
2022-12-04T01:23:05.747Z,100457.84
2022-12-04T01:25:33.811Z,100459.16
2022-12-04T01:28:01.521Z,100464.44
2022-12-04T01:30:29.713Z,100477.00
2022-12-04T01:32:57.512Z,100479.75
2022-12-04T01:35:25.196Z,100477.03
2022-12-04T01:37:52.947Z,100473.09
2022-12-04T01:40:22.134Z,100478.34
2022-12-04T01:42:53.834Z,100488.06
2022-12-04T01:45:49.618Z,100482.56
2022-12-04T01:48:23.951Z,100484.56
2022-12-04T01:50:55.328Z,100482.66
2022-12-04T01:53:23.096Z,100488.03
2022-12-04T01:55:52.257Z,100486.72
2022-12-04T01:58:25.005Z,100492.25
2022-12-04T02:00:58.509Z,100479.09
2022-12-04T02:03:26.869Z,100467.59
2022-12-04T02:05:54.535Z,100481.44
2022-12-04T02:08:22.747Z,100482.66
2022-12-04T02:11:04.522Z,100482.41
2022-12-04T02:13:37.981Z,100484.56
2022-12-04T02:16:14.328Z,100474.75
2022-12-04T02:18:52.503Z,100485.31
2022-12-04T02:21:25.318Z,100495.59
2022-12-04T02:24:13.600Z,100480.75
2022-12-04T02:26:50.264Z,100485.53
2022-12-04T02:29:29.175Z,100488.91
2022-12-04T02:32:04.204Z,100486.59
2022-12-04T02:34:41.686Z,100482.44
2022-12-04T02:37:15.506Z,100484.47
2022-12-04T02:39:47.286Z,100481.00
2022-12-04T02:42:20.418Z,100471.91
2022-12-04T02:44:54.763Z,100480.53
2022-12-04T02:47:24.952Z,100483.38
2022-12-04T02:49:56.771Z,100475.72
2022-12-04T02:52:32.276Z,100487.44
2022-12-04T02:55:08.362Z,100484.97
2022-12-04T02:57:41.887Z,100481.47
2022-12-04T03:00:12.408Z,100482.78
2022-12-04T03:02:45.809Z,100480.50
2022-12-04T03:05:16.710Z,100473.31
2022-12-04T03:07:48.001Z,100475.00
2022-12-04T03:10:19.851Z,100465.53
2022-12-04T03:12:51.949Z,100460.53
2022-12-04T03:15:27.742Z,100444.78
2022-12-04T03:18:01.187Z,100439.78
2022-12-04T03:20:32.026Z,100440.53
2022-12-04T03:23:10.248Z,100441.72
2022-12-04T03:25:44.479Z,100445.78
2022-12-04T03:28:22.008Z,100435.88
2022-12-04T03:30:59.655Z,100440.31
2022-12-04T03:33:33.332Z,100446.97
2022-12-04T03:36:05.184Z,100445.56
2022-12-04T03:38:40.312Z,100454.91
2022-12-04T03:41:14.992Z,100461.38
2022-12-04T03:43:51.728Z,100454.53
2022-12-04T03:46:29.106Z,100452.13
2022-12-04T03:49:03.326Z,100444.84
2022-12-04T03:51:36.007Z,100451.28
2022-12-04T03:54:07.568Z,100440.75
2022-12-04T03:56:40.740Z,100430.94
2022-12-04T03:59:13.545Z,100439.06
2022-12-04T04:01:46.050Z,100446.47
2022-12-04T04:04:19.169Z,100447.19
2022-12-04T04:06:54.966Z,100444.09
2022-12-04T04:09:25.719Z,100439.91
2022-12-04T04:11:58.606Z,100438.09
2022-12-04T04:14:51.360Z,100436.88
2022-12-04T04:17:43.057Z,100443.06
2022-12-04T04:20:33.941Z,100437.69
2022-12-04T04:23:24.349Z,100426.59
2022-12-04T04:25:54.064Z,100431.13
2022-12-04T04:28:30.808Z,100432.44
2022-12-04T04:31:07.241Z,100423.50
2022-12-04T04:33:47.064Z,100430.94
2022-12-04T04:36:23.092Z,100425.22
2022-12-04T04:39:00.955Z,100424.72
2022-12-04T04:41:36.767Z,100424.50
2022-12-04T04:44:12.854Z,100429.31
2022-12-04T04:46:46.940Z,100428.81
2022-12-04T04:49:17.625Z,100426.41
2022-12-04T04:51:46.217Z,100423.66
2022-12-04T04:54:17.085Z,100430.72
2022-12-04T04:56:47.544Z,100422.09
2022-12-04T04:59:16.291Z,100416.47
2022-12-04T05:01:46.782Z,100419.69
2022-12-04T05:04:16.021Z,100419.47
2022-12-04T05:06:43.743Z,100418.28
2022-12-04T05:09:13.709Z,100427.13
2022-12-04T05:11:43.343Z,100428.91
2022-12-04T05:14:11.057Z,100438.09
2022-12-04T05:16:43.112Z,100443.00
2022-12-04T05:19:28.151Z,100446.00
2022-12-04T05:21:57.507Z,100440.97
2022-12-04T05:24:25.183Z,100443.28
2022-12-04T05:26:52.870Z,100446.25
2022-12-04T05:29:20.807Z,100436.44
2022-12-04T05:31:48.519Z,100438.00
2022-12-04T05:34:16.242Z,100429.22
2022-12-04T05:36:44.007Z,100440.75
2022-12-04T05:39:13.045Z,100447.59
2022-12-04T05:41:40.765Z,100432.84
2022-12-04T05:44:08.423Z,100432.13
2022-12-04T05:46:36.197Z,100433.78
2022-12-04T05:49:03.900Z,100435.03
2022-12-04T05:51:31.571Z,100432.88
2022-12-04T05:53:59.252Z,100429.28
2022-12-04T05:56:28.345Z,100438.13
2022-12-04T05:58:56.055Z,100436.44
2022-12-04T06:01:25.191Z,100436.66
2022-12-04T06:03:53.078Z,100438.34
2022-12-04T06:06:23.666Z,100434.28
2022-12-04T06:08:54.451Z,100442.66
2022-12-04T06:11:25.369Z,100438.09
2022-12-04T06:13:55.078Z,100446.72
2022-12-04T06:16:24.687Z,100445.56
2022-12-04T06:18:54.016Z,100446.50
2022-12-04T06:21:25.599Z,100447.69
2022-12-04T06:23:53.997Z,100458.34
2022-12-04T06:26:22.530Z,100457.06
2022-12-04T06:28:50.261Z,100450.56
2022-12-04T06:31:20.040Z,100449.50
2022-12-04T06:33:48.121Z,100445.50
2022-12-04T06:36:18.396Z,100446.00
2022-12-04T06:38:46.501Z,100440.47
2022-12-04T06:41:16.217Z,100437.38
2022-12-04T06:43:44.124Z,100442.41
2022-12-04T06:46:14.036Z,100431.97
2022-12-04T06:48:43.421Z,100439.28
2022-12-04T06:51:13.296Z,100441.47
2022-12-04T06:53:41.301Z,100436.94
2022-12-04T06:56:12.093Z,100439.81
2022-12-04T06:58:39.840Z,100441.97
2022-12-04T07:01:08.708Z,100432.88
2022-12-04T07:03:36.771Z,100435.25
2022-12-04T07:06:17.400Z,100444.56
2022-12-04T07:08:47.174Z,100436.22
2022-12-04T07:11:15.378Z,100435.97
2022-12-04T07:13:43.777Z,100437.16
2022-12-04T07:16:14.264Z,100436.06
2022-12-04T07:18:42.231Z,100439.66
2022-12-04T07:21:11.793Z,100436.88
2022-12-04T07:23:40.957Z,100436.53
2022-12-04T07:26:13.065Z,100435.97
2022-12-04T07:28:41.879Z,100431.53
2022-12-04T07:31:12.053Z,100440.28
2022-12-04T07:33:40.085Z,100439.91
2022-12-04T07:36:10.543Z,100443.72
2022-12-04T07:38:38.368Z,100436.22
2022-12-04T07:41:08.488Z,100441.25
2022-12-04T07:43:36.274Z,100443.97
2022-12-04T07:46:06.832Z,100443.94
2022-12-04T07:48:34.980Z,100445.72
2022-12-04T07:51:07.071Z,100451.16
2022-12-04T07:53:36.013Z,100453.69
2022-12-04T07:56:04.269Z,100451.78
2022-12-04T07:58:34.250Z,100457.50
2022-12-04T08:01:09.730Z,100458.81
2022-12-04T08:03:40.943Z,100456.31
2022-12-04T08:06:13.448Z,100451.75
2022-12-04T08:08:41.261Z,100444.56
2022-12-04T08:11:10.366Z,100444.56
2022-12-04T08:13:39.627Z,100441.47
2022-12-04T08:16:09.527Z,100452.84
2022-12-04T08:18:37.372Z,100450.00
2022-12-04T08:21:06.734Z,100449.84
2022-12-04T08:23:35.181Z,100439.31
2022-12-04T08:26:03.798Z,100446.25
2022-12-04T08:28:32.852Z,100438.84
2022-12-04T08:31:05.820Z,100446.75
2022-12-04T08:33:35.179Z,100446.84
2022-12-04T08:36:03.852Z,100447.19
2022-12-04T08:38:31.642Z,100440.97
2022-12-04T08:41:01.119Z,100445.06
2022-12-04T08:43:28.880Z,100441.81
2022-12-04T08:45:58.195Z,100441.94
2022-12-04T08:48:27.947Z,100437.66
2022-12-04T08:50:56.264Z,100440.97
2022-12-04T08:53:24.655Z,100443.06
2022-12-04T08:55:52.805Z,100451.41
2022-12-04T08:58:21.038Z,100454.41
2022-12-04T09:00:48.770Z,100455.31
2022-12-04T09:03:18.368Z,100444.44
2022-12-04T09:05:47.573Z,100445.69
2022-12-04T09:08:16.918Z,100453.69
2022-12-04T09:10:45.650Z,100449.72
2022-12-04T09:13:13.313Z,100454.75
2022-12-04T09:15:41.939Z,100448.41
2022-12-04T09:18:10.857Z,100439.44
2022-12-04T09:20:38.671Z,100446.25
2022-12-04T09:23:07.891Z,100454.03
2022-12-04T09:25:37.627Z,100451.78
2022-12-04T09:28:06.066Z,100446.28
2022-12-04T09:30:33.794Z,100439.19
2022-12-04T09:33:07.808Z,100440.31
2022-12-04T09:35:35.570Z,100446.03
2022-12-04T09:38:03.213Z,100455.59
2022-12-04T09:40:42.329Z,100449.88
2022-12-04T09:43:20.828Z,100455.38
2022-12-04T09:45:53.542Z,100451.44
2022-12-04T09:48:23.516Z,100446.63
2022-12-04T09:50:52.866Z,100446.97
2022-12-04T09:53:24.371Z,100446.25
2022-12-04T09:55:57.367Z,100449.63
2022-12-04T09:58:29.578Z,100456.56
2022-12-04T10:00:59.426Z,100445.56
2022-12-04T10:03:31.338Z,100448.66
2022-12-04T10:06:09.168Z,100436.53
2022-12-04T10:08:40.553Z,100434.19
2022-12-04T10:11:16.346Z,100433.94
2022-12-04T10:14:11.415Z,100426.41
2022-12-04T10:16:53.456Z,100427.34
2022-12-04T10:19:31.523Z,100418.97
2022-12-04T10:22:09.407Z,100424.09
2022-12-04T10:24:43.165Z,100423.88
2022-12-04T10:27:16.037Z,100415.13
2022-12-04T10:29:54.984Z,100419.91
2022-12-04T10:32:35.441Z,100425.44
2022-12-04T10:35:24.882Z,100417.06
2022-12-04T10:38:05.552Z,100404.16
2022-12-04T10:40:54.092Z,100397.31
2022-12-04T10:43:43.394Z,100397.66
2022-12-04T10:46:22.852Z,100393.00
2022-12-04T10:48:53.977Z,100386.41
2022-12-04T10:51:25.296Z,100384.81
2022-12-04T10:53:55.975Z,100381.44
2022-12-04T10:56:39.257Z,100380.88
2022-12-04T10:59:20.359Z,100376.28
2022-12-04T11:01:51.677Z,100383.13
2022-12-04T11:04:29.897Z,100382.03
2022-12-04T11:07:05.274Z,100377.47
2022-12-04T11:09:35.120Z,100369.81
2022-12-04T11:12:09.156Z,100369.59
2022-12-04T11:14:42.736Z,100370.53
2022-12-04T11:17:23.187Z,100371.50
2022-12-04T11:20:00.863Z,100375.28
2022-12-04T11:22:29.095Z,100371.69
2022-12-04T11:25:12.107Z,100365.59
2022-12-04T11:27:40.737Z,100368.22
2022-12-04T11:30:17.702Z,100366.88
2022-12-04T11:32:47.725Z,100370.00
2022-12-04T11:35:22.273Z,100370.09
2022-12-04T11:37:59.653Z,100380.22
2022-12-04T11:40:33.146Z,100373.00
2022-12-04T11:43:09.349Z,100378.16
2022-12-04T11:45:54.716Z,100371.09
2022-12-04T11:48:31.281Z,100382.97
2022-12-04T11:51:10.707Z,100387.47
2022-12-04T11:53:54.287Z,100379.50
2022-12-04T11:56:29.575Z,100387.75
2022-12-04T11:59:29.942Z,100395.22
2022-12-04T12:02:17.565Z,100386.00
2022-12-04T12:05:00.840Z,100387.09
2022-12-04T12:08:03.446Z,100378.59
2022-12-04T12:10:48.084Z,100387.13
2022-12-04T12:13:28.528Z,100383.66
2022-12-04T12:16:18.339Z,100383.13
2022-12-04T12:19:16.601Z,100371.66
2022-12-04T12:21:56.167Z,100379.69
2022-12-04T12:24:28.753Z,100368.66
2022-12-04T12:27:09.751Z,100370.81
2022-12-04T12:29:56.083Z,100377.50
2022-12-04T12:32:46.013Z,100372.75
2022-12-04T12:35:24.122Z,100376.06
2022-12-04T12:37:54.812Z,100385.78
2022-12-04T12:40:31.984Z,100379.69
2022-12-04T12:43:05.952Z,100375.25
2022-12-04T12:45:41.889Z,100369.69
2022-12-04T12:48:20.791Z,100380.22
2022-12-04T12:51:14.996Z,100381.28
2022-12-04T12:53:49.336Z,100386.03
2022-12-04T12:56:20.192Z,100381.84
2022-12-04T12:58:52.747Z,100377.28
2022-12-04T13:01:24.677Z,100369.06
2022-12-04T13:03:58.443Z,100369.31
2022-12-04T13:06:32.879Z,100360.72
2022-12-04T13:09:11.978Z,100359.38
2022-12-04T13:11:45.475Z,100346.19
2022-12-04T13:14:15.221Z,100344.91
2022-12-04T13:16:54.211Z,100336.00
2022-12-04T13:19:27.445Z,100329.53
2022-12-04T13:22:06.416Z,100333.94
2022-12-04T13:25:04.152Z,100330.97
2022-12-04T13:27:46.347Z,100318.59
2022-12-04T13:30:20.251Z,100319.97
2022-12-04T13:33:17.377Z,100308.78
2022-12-04T13:36:15.416Z,100298.34
2022-12-04T13:38:58.785Z,100300.31
2022-12-04T13:41:28.650Z,100308.91
2022-12-04T13:43:57.577Z,100312.97
2022-12-04T13:46:34.200Z,100319.59
2022-12-04T13:49:10.920Z,100323.31
2022-12-04T13:51:49.129Z,100322.47
2022-12-04T13:54:29.691Z,100323.56
2022-12-04T13:57:10.549Z,100315.00
2022-12-04T13:59:40.264Z,100314.28
2022-12-04T14:02:24.887Z,100322.91
2022-12-04T14:04:58.011Z,100316.19
2022-12-04T14:07:29.966Z,100315.38
2022-12-04T14:10:04.601Z,100317.16
2022-12-04T14:12:36.195Z,100322.19
2022-12-04T14:15:07.645Z,100314.88
2022-12-04T14:17:37.510Z,100319.03
2022-12-04T14:20:08.382Z,100313.78
2022-12-04T14:22:44.852Z,100312.38
2022-12-04T14:25:36.541Z,100306.69
2022-12-04T14:28:15.977Z,100305.59
2022-12-04T14:30:45.732Z,100302.75
2022-12-04T14:33:20.161Z,100307.75
2022-12-04T14:35:51.618Z,100310.94
2022-12-04T14:38:22.659Z,100310.19
2022-12-04T14:40:56.124Z,100317.13
2022-12-04T14:43:26.868Z,100324.31
2022-12-04T14:46:01.455Z,100316.59
2022-12-04T14:48:36.777Z,100332.00
2022-12-04T14:51:12.003Z,100335.88
2022-12-04T14:53:47.166Z,100336.72
2022-12-04T14:56:38.831Z,100349.25
2022-12-04T14:59:08.338Z,100345.91
2022-12-04T15:01:39.107Z,100350.34
2022-12-04T15:04:14.932Z,100348.97
2022-12-04T15:06:44.956Z,100352.81
2022-12-04T15:09:47.341Z,100355.06
2022-12-04T15:12:36.462Z,100349.91
2022-12-04T15:15:13.900Z,100344.19
2022-12-04T15:17:42.036Z,100352.44
2022-12-04T15:20:17.938Z,100347.78
2022-12-04T15:22:46.225Z,100346.63
2022-12-04T15:25:20.360Z,100342.31
2022-12-04T15:27:52.103Z,100327.69
2022-12-04T15:30:22.404Z,100331.56
2022-12-04T15:32:53.060Z,100332.00
2022-12-04T15:35:26.494Z,100325.66
2022-12-04T15:37:54.941Z,100330.59
2022-12-04T15:40:26.603Z,100325.38
2022-12-04T15:43:06.867Z,100330.00
2022-12-04T15:45:34.915Z,100333.94
2022-12-04T15:48:02.972Z,100334.28
2022-12-04T15:50:31.825Z,100340.97
2022-12-04T15:53:03.622Z,100337.47
2022-12-04T15:55:34.275Z,100338.13
2022-12-04T15:58:07.510Z,100347.47
2022-12-04T16:00:37.807Z,100349.13
2022-12-04T16:03:20.078Z,100346.13
2022-12-04T16:05:49.085Z,100347.81
2022-12-04T16:08:24.966Z,100345.91
2022-12-04T16:11:01.030Z,100346.50
2022-12-04T16:13:32.808Z,100351.00
2022-12-04T16:16:01.049Z,100350.41
2022-12-04T16:18:29.830Z,100347.97
2022-12-04T16:20:57.673Z,100338.06
2022-12-04T16:23:26.916Z,100336.28
2022-12-04T16:25:54.648Z,100330.53
2022-12-04T16:28:22.420Z,100336.53
2022-12-04T16:30:53.549Z,100336.28
2022-12-04T16:33:21.329Z,100339.63
2022-12-04T16:35:49.122Z,100337.97
2022-12-04T16:38:18.093Z,100341.03
2022-12-04T16:40:46.794Z,100340.19
2022-12-04T16:43:16.479Z,100346.06
2022-12-04T16:45:47.969Z,100340.91
2022-12-04T16:48:17.028Z,100346.78
2022-12-04T16:50:46.008Z,100346.19
2022-12-04T16:53:17.430Z,100347.16
2022-12-04T16:55:46.976Z,100346.22
2022-12-04T16:58:15.561Z,100342.88
2022-12-04T17:00:44.745Z,100338.44
2022-12-04T17:03:21.726Z,100342.03
2022-12-04T17:05:49.502Z,100335.31
2022-12-04T17:08:17.291Z,100339.88
2022-12-04T17:10:45.377Z,100336.00
2022-12-04T17:13:13.137Z,100334.38
2022-12-04T17:15:40.862Z,100337.44
2022-12-04T17:18:12.923Z,100332.78
2022-12-04T17:20:45.365Z,100328.81
2022-12-04T17:23:13.652Z,100332.16
2022-12-04T17:25:41.561Z,100324.16
2022-12-04T17:28:09.446Z,100320.44
2022-12-04T17:30:37.209Z,100318.47
2022-12-04T17:33:05.497Z,100323.88
2022-12-04T17:35:33.350Z,100321.72
2022-12-04T17:38:06.160Z,100320.78
2022-12-04T17:40:34.355Z,100309.94
2022-12-04T17:43:03.939Z,100303.22
2022-12-04T17:45:31.744Z,100310.41
2022-12-04T17:48:02.576Z,100299.63
2022-12-04T17:50:36.184Z,100298.88
2022-12-04T17:53:05.309Z,100302.31
2022-12-04T17:55:35.358Z,100297.88
2022-12-04T17:58:03.138Z,100302.25
2022-12-04T18:00:31.010Z,100295.13
2022-12-04T18:02:58.779Z,100295.09
2022-12-04T18:05:26.532Z,100306.97
2022-12-04T18:07:54.398Z,100311.53
2022-12-04T18:10:27.889Z,100317.91
2022-12-04T18:12:59.062Z,100326.31
2022-12-04T18:15:26.798Z,100327.34
2022-12-04T18:17:55.583Z,100331.16
2022-12-04T18:20:23.277Z,100333.44
2022-12-04T18:22:51.075Z,100332.84
2022-12-04T18:25:18.961Z,100335.50
2022-12-04T18:27:48.061Z,100332.75
2022-12-04T18:30:16.053Z,100335.41
2022-12-04T18:32:45.113Z,100338.34
2022-12-04T18:35:12.807Z,100340.63
2022-12-04T18:37:40.619Z,100344.81
2022-12-04T18:40:09.659Z,100343.50
2022-12-04T18:42:37.725Z,100344.09
2022-12-04T18:45:07.866Z,100343.78
2022-12-04T18:47:36.455Z,100345.31
2022-12-04T18:50:04.318Z,100344.84
2022-12-04T18:52:36.055Z,100341.16
2022-12-04T18:55:03.809Z,100346.34
2022-12-04T18:57:31.581Z,100343.50
2022-12-04T18:59:59.486Z,100339.19
2022-12-04T19:02:28.930Z,100338.94
2022-12-04T19:04:56.828Z,100344.09
2022-12-04T19:07:24.495Z,100341.16
2022-12-04T19:10:21.954Z,100335.59
2022-12-04T19:12:39.897Z,100342.31
2022-12-04T19:15:08.376Z,100344.94
2022-12-04T19:17:37.568Z,100346.03
2022-12-04T19:20:10.899Z,100340.63
2022-12-04T19:22:39.219Z,100345.19
2022-12-04T19:25:08.453Z,100348.78
2022-12-04T19:27:36.098Z,100352.25
2022-12-04T19:30:03.752Z,100347.09
2022-12-04T19:32:31.465Z,100354.09
2022-12-04T19:35:00.499Z,100350.34
2022-12-04T19:37:28.254Z,100351.41
2022-12-04T19:39:59.311Z,100360.03
2022-12-04T19:42:27.199Z,100366.84
2022-12-04T19:44:54.863Z,100361.25
2022-12-04T19:47:22.671Z,100370.56
2022-12-04T19:49:50.518Z,100374.50
2022-12-04T19:52:19.603Z,100372.69
2022-12-04T19:54:47.372Z,100385.88
2022-12-04T19:57:15.674Z,100385.41
2022-12-04T19:59:46.651Z,100392.47
2022-12-04T20:02:15.152Z,100389.72
2022-12-04T20:04:43.188Z,100387.41
2022-12-04T20:07:11.010Z,100394.47
2022-12-04T20:09:40.239Z,100396.69
2022-12-04T20:12:08.577Z,100396.50
2022-12-04T20:14:36.263Z,100402.03
2022-12-04T20:17:05.111Z,100405.97
2022-12-04T20:19:33.004Z,100406.47
2022-12-04T20:22:00.706Z,100408.50
2022-12-04T20:24:28.642Z,100407.53
2022-12-04T20:26:57.650Z,100415.81
2022-12-04T20:29:25.389Z,100415.25
2022-12-04T20:31:53.149Z,100407.22
2022-12-04T20:34:21.027Z,100407.22
2022-12-04T20:36:50.309Z,100414.41
2022-12-04T20:39:19.677Z,100411.53
2022-12-04T20:41:48.179Z,100418.19
2022-12-04T20:44:19.683Z,100411.13
2022-12-04T20:46:48.272Z,100411.03
2022-12-04T20:49:21.592Z,100413.66
2022-12-04T20:51:50.216Z,100405.75
2022-12-04T20:54:20.308Z,100416.38
2022-12-04T20:56:49.242Z,100417.66
2022-12-04T20:59:20.253Z,100412.16
2022-12-04T21:01:48.919Z,100409.97
2022-12-04T21:04:18.528Z,100413.84
2022-12-04T21:06:49.466Z,100421.00
2022-12-04T21:09:19.766Z,100420.50
2022-12-04T21:11:50.139Z,100425.22
2022-12-04T21:14:38.142Z,100416.84
2022-12-04T21:17:11.668Z,100418.41
2022-12-04T21:19:39.661Z,100419.53
2022-12-04T21:22:07.467Z,100415.06
2022-12-04T21:24:38.787Z,100412.06
2022-12-04T21:27:07.782Z,100404.38
2022-12-04T21:29:37.235Z,100414.06
2022-12-04T21:32:06.053Z,100404.03
2022-12-04T21:34:34.431Z,100409.56
2022-12-04T21:37:02.130Z,100408.47
2022-12-04T21:39:29.918Z,100406.19
2022-12-04T21:42:15.294Z,100404.41
2022-12-04T21:44:44.293Z,100411.22
2022-12-04T21:47:12.257Z,100412.44
2022-12-04T21:49:39.973Z,100415.81
2022-12-04T21:52:07.706Z,100416.78
2022-12-04T21:54:35.368Z,100411.03
2022-12-04T21:57:03.338Z,100417.84
2022-12-04T21:59:31.329Z,100420.59
2022-12-04T22:02:00.520Z,100425.16
2022-12-04T22:04:28.463Z,100418.69
2022-12-04T22:06:56.170Z,100427.66
2022-12-04T22:09:25.996Z,100427.03
2022-12-04T22:11:53.683Z,100427.16
2022-12-04T22:14:21.410Z,100429.22
2022-12-04T22:16:51.718Z,100432.34
2022-12-04T22:19:21.015Z,100437.16
2022-12-04T22:21:51.205Z,100439.78
2022-12-04T22:24:18.845Z,100449.09
2022-12-04T22:26:46.527Z,100434.25
2022-12-04T22:29:48.620Z,100439.16
2022-12-04T22:32:01.932Z,100430.88
2022-12-04T22:34:31.089Z,100429.47
2022-12-04T22:36:58.787Z,100439.41
2022-12-04T22:39:26.693Z,100437.28
2022-12-04T22:41:54.515Z,100443.84
2022-12-04T22:44:22.266Z,100450.53
2022-12-04T22:46:50.004Z,100450.66
2022-12-04T22:49:17.813Z,100455.59
2022-12-04T22:51:46.800Z,100456.91
2022-12-04T22:54:18.207Z,100461.69
2022-12-04T22:56:45.898Z,100461.81
2022-12-04T22:59:13.629Z,100457.88
2022-12-04T23:01:41.365Z,100457.38
2022-12-04T23:04:09.099Z,100453.19
2022-12-04T23:06:37.049Z,100461.41
2022-12-04T23:09:08.951Z,100462.97
2022-12-04T23:11:37.467Z,100467.31
2022-12-04T23:14:09.187Z,100465.88
2022-12-04T23:16:38.706Z,100463.72
2022-12-04T23:19:07.509Z,100464.22
2022-12-04T23:21:36.076Z,100462.28
2022-12-04T23:24:04.045Z,100455.81
2022-12-04T23:26:35.795Z,100459.75
2022-12-04T23:29:05.335Z,100458.91
2022-12-04T23:31:38.054Z,100454.84
2022-12-04T23:34:07.154Z,100454.75
2022-12-04T23:36:35.180Z,100461.59
2022-12-04T23:39:02.866Z,100454.25
2022-12-04T23:41:32.867Z,100458.91
2022-12-04T23:44:00.503Z,100459.63
2022-12-04T23:46:32.527Z,100463.50
2022-12-04T23:49:01.186Z,100473.53
2022-12-04T23:51:29.715Z,100473.78
2022-12-04T23:53:57.708Z,100472.34
2022-12-04T23:56:27.272Z,100475.00
2022-12-04T23:58:58.398Z,100477.84
